AAL443 KIND-KORD
Flight info
| Callsign | AAL443 |
|---|---|
| Flight time | 0h 38m |
| Altitude | 23000 |
| Route | MEARZ7 MEARZ BRATN BONNT VEECK5 |
| Aircraft | A319/M-SDE3FGHIRWY/LB1 |
Departure
| Time | 2026-05-04 14:08 |
|---|---|
| Airport | Indianapolis International Airport (KIND) |
Arrival
| Time | 2026-05-04 14:47 |
|---|---|
| Airport | Chicago O'Hare International Airport (KORD) |
| Time | Latitude | Longitude | Altitude | Speed | Heading |
|---|---|---|---|---|---|
| 2026-05-04 13:32 | 39.71546 | -86.29371 | 786 ft | 0 kts | 320° |
| 2026-05-04 13:55 | 39.71545 | -86.29370 | 786 ft | 2 kts | 320° |
| 2026-05-04 13:55 | 39.71525 | -86.29348 | 785 ft | 4 kts | 321° |
| 2026-05-04 13:56 | 39.71504 | -86.29327 | 785 ft | 4 kts | 323° |
| 2026-05-04 13:56 | 39.71482 | -86.29306 | 784 ft | 4 kts | 326° |
| 2026-05-04 13:56 | 39.71434 | -86.29278 | 784 ft | 4 kts | 9° |
| 2026-05-04 13:57 | 39.71422 | -86.29285 | 784 ft | 1 kts | 50° |
| 2026-05-04 13:57 | 39.71420 | -86.29287 | 784 ft | 0 kts | 50° |
| 2026-05-04 13:59 | 39.71421 | -86.29287 | 784 ft | 0 kts | 50° |
| 2026-05-04 13:59 | 39.71432 | -86.29269 | 784 ft | 6 kts | 50° |
| 2026-05-04 13:59 | 39.71543 | -86.29105 | 783 ft | 17 kts | 30° |
| 2026-05-04 14:00 | 39.71630 | -86.29153 | 785 ft | 4 kts | 320° |
| 2026-05-04 14:00 | 39.71689 | -86.29218 | 786 ft | 5 kts | 320° |
| 2026-05-04 14:00 | 39.71711 | -86.29243 | 787 ft | 15 kts | 319° |
| 2026-05-04 14:01 | 39.71820 | -86.29342 | 787 ft | 19 kts | 0° |
| 2026-05-04 14:01 | 39.71916 | -86.29271 | 790 ft | 8 kts | 359° |
| 2026-05-04 14:01 | 39.71956 | -86.29304 | 790 ft | 8 kts | 320° |
| 2026-05-04 14:02 | 39.71987 | -86.29346 | 789 ft | 10 kts | 313° |
| 2026-05-04 14:02 | 39.72042 | -86.29420 | 786 ft | 13 kts | 314° |
| 2026-05-04 14:02 | 39.72082 | -86.29473 | 785 ft | 15 kts | 315° |
| 2026-05-04 14:03 | 39.72099 | -86.29495 | 785 ft | 15 kts | 315° |
| 2026-05-04 14:03 | 39.72103 | -86.29500 | 785 ft | 15 kts | 315° |
| 2026-05-04 14:03 | 39.72132 | -86.29538 | 784 ft | 2 kts | 315° |
| 2026-05-04 14:04 | 39.72220 | -86.29652 | 780 ft | 20 kts | 315° |
| 2026-05-04 14:04 | 39.72323 | -86.29636 | 778 ft | 18 kts | 44° |
| 2026-05-04 14:04 | 39.72412 | -86.29524 | 778 ft | 18 kts | 45° |
| 2026-05-04 14:05 | 39.72445 | -86.29481 | 777 ft | 0 kts | 45° |
| 2026-05-04 14:05 | 39.72456 | -86.29468 | 777 ft | 6 kts | 45° |
| 2026-05-04 14:06 | 39.72511 | -86.29396 | 777 ft | 16 kts | 45° |
| 2026-05-04 14:06 | 39.72599 | -86.29285 | 780 ft | 18 kts | 43° |
| 2026-05-04 14:06 | 39.72612 | -86.29268 | 780 ft | 3 kts | 43° |
| 2026-05-04 14:06 | 39.72656 | -86.29215 | 780 ft | 15 kts | 43° |
| 2026-05-04 14:07 | 39.72749 | -86.29216 | 781 ft | 17 kts | 314° |
| 2026-05-04 14:07 | 39.72799 | -86.29329 | 778 ft | 14 kts | 238° |
| 2026-05-04 14:07 | 39.72724 | -86.29424 | 778 ft | 18 kts | 224° |
| 2026-05-04 14:07 | 39.72471 | -86.29747 | 778 ft | 89 kts | 225° |
| 2026-05-04 14:08 | 39.71877 | -86.30507 | 788 ft | 147 kts | 225° |
| 2026-05-04 14:08 | 39.71104 | -86.31522 | 1177 ft | 167 kts | 226° |
| 2026-05-04 14:08 | 39.70271 | -86.32637 | 1861 ft | 175 kts | 226° |
| 2026-05-04 14:08 | 39.69391 | -86.33822 | 2481 ft | 192 kts | 228° |
| 2026-05-04 14:09 | 39.68332 | -86.37201 | 3701 ft | 232 kts | 280° |
| 2026-05-04 14:09 | 39.69180 | -86.39027 | 4675 ft | 249 kts | 315° |
| 2026-05-04 14:10 | 39.72762 | -86.39725 | 6744 ft | 282 kts | 2° |
| 2026-05-04 14:10 | 39.74703 | -86.39120 | 7750 ft | 289 kts | 9° |
| 2026-05-04 14:10 | 39.76643 | -86.38359 | 8783 ft | 293 kts | 10° |
| 2026-05-04 14:10 | 39.78605 | -86.37579 | 9743 ft | 297 kts | 9° |
| 2026-05-04 14:11 | 39.80630 | -86.36826 | 10381 ft | 312 kts | 8° |
| 2026-05-04 14:11 | 39.85051 | -86.35359 | 11644 ft | 335 kts | 7° |
| 2026-05-04 14:11 | 39.87338 | -86.34646 | 12517 ft | 339 kts | 7° |
| 2026-05-04 14:12 | 39.89647 | -86.33937 | 13366 ft | 343 kts | 7° |
| 2026-05-04 14:12 | 39.91987 | -86.33220 | 14147 ft | 347 kts | 7° |
| 2026-05-04 14:12 | 39.94314 | -86.32508 | 14892 ft | 351 kts | 7° |
| 2026-05-04 14:13 | 39.96524 | -86.31828 | 15580 ft | 355 kts | 8° |
| 2026-05-04 14:13 | 39.98126 | -86.31123 | 16080 ft | 363 kts | 17° |
| 2026-05-04 14:14 | 40.00366 | -86.29478 | 16785 ft | 376 kts | 31° |
| 2026-05-04 14:14 | 40.04283 | -86.24743 | 18220 ft | 389 kts | 39° |
| 2026-05-04 14:14 | 40.06213 | -86.22319 | 18849 ft | 392 kts | 39° |
| 2026-05-04 14:15 | 40.10181 | -86.17359 | 20175 ft | 397 kts | 39° |
| 2026-05-04 14:15 | 40.14197 | -86.12332 | 21526 ft | 401 kts | 39° |
| 2026-05-04 14:16 | 40.18258 | -86.07241 | 22694 ft | 407 kts | 39° |
| 2026-05-04 14:16 | 40.20294 | -86.04686 | 22823 ft | 401 kts | 40° |
| 2026-05-04 14:17 | 40.24191 | -85.99773 | 22838 ft | 383 kts | 39° |
| 2026-05-04 14:17 | 40.26120 | -85.97352 | 22837 ft | 382 kts | 39° |
| 2026-05-04 14:17 | 40.29964 | -85.92531 | 22838 ft | 382 kts | 39° |
| 2026-05-04 14:18 | 40.31884 | -85.90110 | 22838 ft | 382 kts | 39° |
| 2026-05-04 14:18 | 40.35685 | -85.85304 | 22843 ft | 382 kts | 39° |
| 2026-05-04 14:19 | 40.39859 | -85.81201 | 22847 ft | 369 kts | 16° |
| 2026-05-04 14:19 | 40.42330 | -85.80443 | 22861 ft | 360 kts | 359° |
| 2026-05-04 14:19 | 40.44797 | -85.80687 | 22850 ft | 352 kts | 342° |
| 2026-05-04 14:19 | 40.47051 | -85.81842 | 22841 ft | 345 kts | 326° |
| 2026-05-04 14:20 | 40.48938 | -85.83731 | 22832 ft | 340 kts | 314° |
| 2026-05-04 14:20 | 40.50681 | -85.85859 | 22828 ft | 341 kts | 314° |
| 2026-05-04 14:20 | 40.52425 | -85.87982 | 22829 ft | 341 kts | 314° |
| 2026-05-04 14:21 | 40.55901 | -85.92200 | 22825 ft | 342 kts | 314° |
| 2026-05-04 14:21 | 40.57656 | -85.94329 | 22826 ft | 342 kts | 314° |
| 2026-05-04 14:21 | 40.59404 | -85.96454 | 22827 ft | 342 kts | 314° |
| 2026-05-04 14:21 | 40.61211 | -85.98662 | 22841 ft | 363 kts | 314° |
| 2026-05-04 14:22 | 40.63111 | -86.00988 | 22840 ft | 383 kts | 314° |
| 2026-05-04 14:22 | 40.65074 | -86.03389 | 22815 ft | 392 kts | 314° |
| 2026-05-04 14:22 | 40.67088 | -86.05848 | 22818 ft | 395 kts | 314° |
| 2026-05-04 14:22 | 40.69109 | -86.08314 | 22812 ft | 396 kts | 314° |
| 2026-05-04 14:23 | 40.73161 | -86.13259 | 22816 ft | 396 kts | 314° |
| 2026-05-04 14:23 | 40.75179 | -86.15726 | 22812 ft | 396 kts | 314° |
| 2026-05-04 14:23 | 40.77197 | -86.18198 | 22816 ft | 396 kts | 314° |
| 2026-05-04 14:24 | 40.79206 | -86.20667 | 22811 ft | 395 kts | 314° |
| 2026-05-04 14:24 | 40.81217 | -86.23146 | 22810 ft | 395 kts | 314° |
| 2026-05-04 14:24 | 40.82844 | -86.25151 | 22815 ft | 395 kts | 314° |
| 2026-05-04 14:24 | 40.84896 | -86.27678 | 22823 ft | 395 kts | 314° |
| 2026-05-04 14:25 | 40.86909 | -86.30158 | 22807 ft | 395 kts | 314° |
| 2026-05-04 14:25 | 40.90938 | -86.35121 | 22803 ft | 396 kts | 314° |
| 2026-05-04 14:25 | 40.92956 | -86.37611 | 22791 ft | 397 kts | 314° |
| 2026-05-04 14:26 | 40.94984 | -86.40118 | 22467 ft | 397 kts | 314° |
| 2026-05-04 14:26 | 40.96993 | -86.42605 | 22007 ft | 394 kts | 314° |
| 2026-05-04 14:26 | 40.98984 | -86.45072 | 21533 ft | 390 kts | 314° |
| 2026-05-04 14:26 | 41.00963 | -86.47524 | 21065 ft | 387 kts | 314° |
| 2026-05-04 14:27 | 41.02921 | -86.49951 | 20605 ft | 384 kts | 314° |
| 2026-05-04 14:27 | 41.04865 | -86.52360 | 20145 ft | 381 kts | 314° |
| 2026-05-04 14:27 | 41.06794 | -86.54755 | 19697 ft | 378 kts | 313° |
| 2026-05-04 14:27 | 41.08707 | -86.57139 | 19267 ft | 376 kts | 313° |
| 2026-05-04 14:28 | 41.10588 | -86.59486 | 18838 ft | 374 kts | 313° |
| 2026-05-04 14:28 | 41.12362 | -86.61974 | 18408 ft | 368 kts | 305° |
| 2026-05-04 14:28 | 41.13742 | -86.64789 | 17974 ft | 362 kts | 296° |
| 2026-05-04 14:28 | 41.14964 | -86.67705 | 17487 ft | 360 kts | 296° |
| 2026-05-04 14:29 | 41.17381 | -86.73464 | 16536 ft | 354 kts | 296° |
| 2026-05-04 14:29 | 41.19756 | -86.79147 | 15620 ft | 348 kts | 296° |
| 2026-05-04 14:30 | 41.20921 | -86.81950 | 15167 ft | 346 kts | 296° |
| 2026-05-04 14:30 | 41.22068 | -86.84705 | 14729 ft | 343 kts | 296° |
| 2026-05-04 14:30 | 41.24364 | -86.90223 | 13854 ft | 338 kts | 296° |
| 2026-05-04 14:31 | 41.25498 | -86.92950 | 13425 ft | 336 kts | 296° |
| 2026-05-04 14:31 | 41.27754 | -86.98370 | 12479 ft | 331 kts | 296° |
| 2026-05-04 14:32 | 41.29962 | -87.03685 | 11560 ft | 326 kts | 296° |
| 2026-05-04 14:32 | 41.31054 | -87.06318 | 11157 ft | 323 kts | 296° |
| 2026-05-04 14:32 | 41.32120 | -87.08897 | 11039 ft | 323 kts | 296° |
| 2026-05-04 14:32 | 41.33205 | -87.11528 | 11055 ft | 323 kts | 296° |
| 2026-05-04 14:33 | 41.34288 | -87.14153 | 11055 ft | 324 kts | 296° |
| 2026-05-04 14:33 | 41.35371 | -87.16780 | 11058 ft | 324 kts | 296° |
| 2026-05-04 14:33 | 41.36591 | -87.19309 | 11044 ft | 327 kts | 306° |
| 2026-05-04 14:33 | 41.38235 | -87.21448 | 11050 ft | 331 kts | 314° |
| 2026-05-04 14:34 | 41.39948 | -87.23485 | 11043 ft | 331 kts | 314° |
| 2026-05-04 14:34 | 41.41666 | -87.25534 | 11033 ft | 330 kts | 314° |
| 2026-05-04 14:34 | 41.43382 | -87.27586 | 11040 ft | 330 kts | 314° |
| 2026-05-04 14:34 | 41.45088 | -87.29629 | 11043 ft | 330 kts | 314° |
| 2026-05-04 14:35 | 41.46797 | -87.31678 | 11035 ft | 330 kts | 314° |
| 2026-05-04 14:35 | 41.48508 | -87.33729 | 11033 ft | 330 kts | 314° |
| 2026-05-04 14:35 | 41.50231 | -87.35766 | 11031 ft | 331 kts | 316° |
| 2026-05-04 14:35 | 41.52135 | -87.37520 | 11034 ft | 333 kts | 321° |
| 2026-05-04 14:36 | 41.54065 | -87.39241 | 11047 ft | 334 kts | 321° |
| 2026-05-04 14:36 | 41.56004 | -87.40967 | 11033 ft | 336 kts | 323° |
| 2026-05-04 14:36 | 41.58138 | -87.42231 | 11034 ft | 343 kts | 337° |
| 2026-05-04 14:36 | 41.60409 | -87.43185 | 11028 ft | 334 kts | 338° |
| 2026-05-04 14:37 | 41.62564 | -87.44066 | 11030 ft | 315 kts | 338° |
| 2026-05-04 14:37 | 41.64605 | -87.44890 | 11031 ft | 297 kts | 337° |
| 2026-05-04 14:37 | 41.66548 | -87.45678 | 10902 ft | 287 kts | 336° |
| 2026-05-04 14:37 | 41.68437 | -87.46458 | 10605 ft | 283 kts | 336° |
| 2026-05-04 14:38 | 41.70315 | -87.47241 | 10252 ft | 281 kts | 336° |
| 2026-05-04 14:38 | 41.72178 | -87.48025 | 9889 ft | 280 kts | 336° |
| 2026-05-04 14:38 | 41.74042 | -87.48809 | 9522 ft | 279 kts | 336° |
| 2026-05-04 14:38 | 41.75899 | -87.49586 | 9104 ft | 279 kts | 336° |
| 2026-05-04 14:39 | 41.77763 | -87.50363 | 8645 ft | 280 kts | 336° |
| 2026-05-04 14:39 | 41.79628 | -87.51140 | 8205 ft | 280 kts | 337° |
| 2026-05-04 14:39 | 41.81487 | -87.51913 | 7777 ft | 279 kts | 337° |
| 2026-05-04 14:40 | 41.85171 | -87.53450 | 6944 ft | 277 kts | 337° |
| 2026-05-04 14:40 | 41.87011 | -87.54219 | 6515 ft | 277 kts | 337° |
| 2026-05-04 14:40 | 41.88850 | -87.54987 | 6098 ft | 276 kts | 337° |
| 2026-05-04 14:40 | 41.90680 | -87.55751 | 5653 ft | 276 kts | 337° |
| 2026-05-04 14:41 | 41.92520 | -87.56517 | 5249 ft | 273 kts | 337° |
| 2026-05-04 14:41 | 41.94242 | -87.57393 | 5111 ft | 254 kts | 323° |
| 2026-05-04 14:41 | 41.96310 | -87.60670 | 4757 ft | 219 kts | 284° |
| 2026-05-04 14:42 | 41.96575 | -87.64562 | 4222 ft | 204 kts | 266° |
| 2026-05-04 14:42 | 41.96578 | -87.66442 | 3960 ft | 199 kts | 266° |
| 2026-05-04 14:42 | 41.96580 | -87.68281 | 3698 ft | 193 kts | 266° |
| 2026-05-04 14:43 | 41.96581 | -87.70044 | 3461 ft | 187 kts | 266° |
| 2026-05-04 14:43 | 41.96582 | -87.71749 | 3225 ft | 179 kts | 266° |
| 2026-05-04 14:43 | 41.96583 | -87.73395 | 2984 ft | 172 kts | 266° |
| 2026-05-04 14:43 | 41.96583 | -87.74989 | 2763 ft | 168 kts | 266° |
| 2026-05-04 14:44 | 41.96583 | -87.76543 | 2535 ft | 164 kts | 266° |
| 2026-05-04 14:44 | 41.96583 | -87.78056 | 2321 ft | 160 kts | 265° |
| 2026-05-04 14:44 | 41.96583 | -87.79528 | 2110 ft | 153 kts | 265° |
| 2026-05-04 14:44 | 41.96584 | -87.80859 | 1918 ft | 135 kts | 265° |
| 2026-05-04 14:45 | 41.96584 | -87.82078 | 1739 ft | 127 kts | 265° |
| 2026-05-04 14:45 | 41.96581 | -87.83244 | 1558 ft | 126 kts | 264° |
| 2026-05-04 14:45 | 41.96575 | -87.84413 | 1371 ft | 124 kts | 265° |
| 2026-05-04 14:45 | 41.96563 | -87.85570 | 1208 ft | 123 kts | 266° |
| 2026-05-04 14:46 | 41.96572 | -87.86331 | 1134 ft | 122 kts | 266° |
| 2026-05-04 14:46 | 41.96589 | -87.87501 | 966 ft | 126 kts | 263° |
| 2026-05-04 14:46 | 41.96574 | -87.88676 | 780 ft | 125 kts | 264° |
| 2026-05-04 14:46 | 41.96573 | -87.89831 | 668 ft | 119 kts | 270° |
| 2026-05-04 14:47 | 41.96572 | -87.90755 | 670 ft | 74 kts | 269° |
| 2026-05-04 14:47 | 41.96584 | -87.91226 | 668 ft | 33 kts | 282° |
| 2026-05-04 14:47 | 41.96654 | -87.91471 | 669 ft | 18 kts | 300° |
| 2026-05-04 14:47 | 41.96734 | -87.91462 | 669 ft | 14 kts | 70° |
| 2026-05-04 14:48 | 41.96737 | -87.91325 | 669 ft | 16 kts | 90° |
| 2026-05-04 14:48 | 41.96738 | -87.91144 | 669 ft | 23 kts | 89° |
| 2026-05-04 14:48 | 41.96739 | -87.90900 | 669 ft | 29 kts | 90° |
| 2026-05-04 14:48 | 41.96739 | -87.90623 | 668 ft | 28 kts | 90° |
| 2026-05-04 14:49 | 41.96740 | -87.90359 | 669 ft | 28 kts | 89° |
| 2026-05-04 14:49 | 41.96739 | -87.90098 | 669 ft | 26 kts | 90° |
| 2026-05-04 14:49 | 41.96740 | -87.89851 | 670 ft | 27 kts | 90° |
| 2026-05-04 14:49 | 41.96741 | -87.89599 | 669 ft | 27 kts | 90° |
| 2026-05-04 14:50 | 41.96766 | -87.89440 | 668 ft | 14 kts | 24° |
| 2026-05-04 14:50 | 41.96864 | -87.89438 | 670 ft | 15 kts | 359° |
| 2026-05-04 14:50 | 41.96982 | -87.89438 | 670 ft | 18 kts | 360° |
| 2026-05-04 14:50 | 41.97084 | -87.89508 | 669 ft | 18 kts | 296° |
| 2026-05-04 14:51 | 41.97163 | -87.89640 | 668 ft | 19 kts | 326° |
| 2026-05-04 14:51 | 41.97262 | -87.89754 | 669 ft | 18 kts | 299° |
| 2026-05-04 14:51 | 41.97348 | -87.89864 | 669 ft | 12 kts | 313° |
| 2026-05-04 14:51 | 41.97357 | -87.89958 | 669 ft | 10 kts | 278° |
| 2026-05-04 14:52 | 41.97361 | -87.89992 | 669 ft | 0 kts | 278° |